Impacts TAF Board
For situational awareness. Not to be used for flight planning purposes.
IDs:

KSFO - San Francisco Intl, CA, US

Issued at 2053 UTC 19 Jan 2019
Updated at 2320 UTC 19 Jan 2019
Potential Impact None Slight Moderate High
Time2256Z 20/00Z 20/01Z 20/02Z 20/03Z 20/04Z 20/05Z 20/06Z 20/07Z 20/08Z 20/09Z 20/10Z 20/11Z 20/12Z>>
Type OBS PRVL PRVL PRVL PRVL PRVL PRVL PRVL PRVL PRVL PRVL PRVL PRVL PRVL
VIS 10 >6 >6 >6 >6 >6 >6 >6 >6 >6 >6 >6 >6 >6
CIG 60 200 200 50 50 50 50 50 50 40 40 40 25 25
Cover BKN BKN BKN BKN BKN BKN BKN BKN BKN OVC OVC OVC OVC OVC
FltCat VFR VFR VFR VFR VFR VFR VFR VFR VFR VFR VFR VFR MVFR MVFR
WX -- -- -- -- -- -- -- -- -- -- -- -- VCSH VCSH
WDir 20 70 70 280 280 280 280 280 280 210 210 210 220 220
WSpd 3 5 5 5 5 5 5 5 5 5 5 5 7 7
WGst -- -- -- -- -- -- -- -- -- -- -- -- -- --
Raw TAF
KSFO 192053Z 1921/2024 01005KT P6SM FEW035 BKN200
  FM200000 07005KT P6SM FEW040 BKN200
  FM200200 28005KT P6SM SCT040 BKN050 BKN100
  FM200800 21005KT P6SM FEW015 OVC040
  FM201100 22007KT P6SM VCSH SCT015 OVC025
  FM202100 27015KT 6SM -SHRA BR SCT015 OVC020


Raw METAR
KSFO 192256Z COR 02003KT 10SM FEW035 BKN060 BKN200 18/10 A3026 RMK AO2 SLP247 T01830100 $
KSFO 192156Z 01003KT 10SM FEW038 BKN060 BKN200 17/10 A3028 RMK AO2 SLP252 T01670100 $
KSFO 192056Z 01005KT 10SM FEW038 SCT160 BKN200 16/11 A3030 RMK AO2 SLP262 T01610106 58021 $

METAR Board
Radar Display
Forecast Discussion
For situational awareness. Not to be used for flight planning purposes.